createdAt,value
2023-05-17T00:01:14.968Z,14.45
2023-05-17T00:04:17.395Z,14.46
2023-05-17T00:07:19.533Z,14.41
2023-05-17T00:10:21.836Z,14.44
2023-05-17T00:13:24.328Z,14.45
2023-05-17T00:16:26.766Z,14.51
2023-05-17T00:19:28.821Z,14.46
2023-05-17T00:22:31.286Z,14.41
2023-05-17T00:25:33.402Z,14.42
2023-05-17T00:28:36.280Z,14.40
2023-05-17T00:31:38.679Z,14.35
2023-05-17T00:34:41.105Z,14.34
2023-05-17T00:37:47.770Z,14.32
2023-05-17T00:40:50.891Z,14.31
2023-05-17T00:43:53.084Z,14.31
2023-05-17T00:46:55.854Z,14.21
2023-05-17T00:49:57.884Z,14.20
2023-05-17T00:53:01.236Z,14.11
2023-05-17T00:56:03.813Z,14.03
2023-05-17T00:59:07.826Z,13.98
2023-05-17T01:02:11.360Z,13.97
2023-05-17T01:05:16.041Z,13.96
2023-05-17T01:08:18.205Z,13.94
2023-05-17T01:11:37.934Z,13.94
2023-05-17T01:14:51.412Z,13.97
2023-05-17T01:17:54.351Z,13.96
2023-05-17T01:20:59.252Z,14.02
2023-05-17T01:24:04.884Z,13.92
2023-05-17T01:27:07.322Z,13.93
2023-05-17T01:30:11.982Z,13.93
2023-05-17T01:33:14.506Z,13.96
2023-05-17T01:36:17.016Z,13.89
2023-05-17T01:39:19.518Z,13.97
2023-05-17T01:42:24.507Z,13.95
2023-05-17T01:45:30.763Z,13.92
2023-05-17T01:48:39.240Z,14.00
2023-05-17T01:51:53.390Z,14.00
2023-05-17T01:55:26.401Z,13.97
2023-05-17T01:58:29.472Z,13.94
2023-05-17T02:01:32.221Z,13.88
2023-05-17T02:04:34.960Z,13.84
2023-05-17T02:07:37.415Z,13.74
2023-05-17T02:10:39.854Z,13.67
2023-05-17T02:13:42.260Z,13.65
2023-05-17T02:16:44.273Z,13.63
2023-05-17T02:19:47.974Z,13.57
2023-05-17T02:22:50.034Z,13.54
2023-05-17T02:25:53.995Z,13.47
2023-05-17T02:28:56.172Z,13.46
2023-05-17T02:31:59.172Z,13.47
2023-05-17T02:35:01.394Z,13.41
2023-05-17T02:38:03.701Z,13.45
2023-05-17T02:41:05.793Z,13.49
2023-05-17T02:44:08.154Z,13.50
2023-05-17T02:47:10.354Z,13.53
2023-05-17T02:50:12.861Z,13.52
2023-05-17T02:53:15.326Z,13.56
2023-05-17T02:56:17.880Z,13.54
2023-05-17T02:59:20.326Z,13.56
2023-05-17T03:02:22.734Z,13.56
2023-05-17T03:05:25.120Z,13.56
2023-05-17T03:08:28.563Z,13.59
2023-05-17T03:11:31.600Z,13.61
2023-05-17T03:14:35.692Z,13.64
2023-05-17T03:17:38.293Z,13.68
2023-05-17T03:20:41.466Z,13.73
2023-05-17T03:23:43.560Z,13.81
2023-05-17T03:26:46.009Z,13.91
2023-05-17T03:29:48.247Z,13.98
2023-05-17T03:32:50.895Z,14.05
2023-05-17T03:35:53.043Z,14.07
2023-05-17T03:38:55.624Z,14.13
2023-05-17T03:41:57.852Z,14.15
2023-05-17T03:45:01.161Z,14.13
2023-05-17T03:48:03.477Z,14.06
2023-05-17T03:51:05.986Z,14.02
2023-05-17T03:54:08.467Z,14.02
2023-05-17T03:57:11.002Z,14.21
2023-05-17T04:00:13.402Z,14.21
2023-05-17T04:03:18.544Z,14.24
2023-05-17T04:06:23.048Z,14.25
2023-05-17T04:09:25.836Z,14.23
2023-05-17T04:12:28.842Z,14.29
2023-05-17T04:15:31.017Z,14.36
2023-05-17T04:18:37.515Z,14.42
2023-05-17T04:21:39.923Z,14.40
2023-05-17T04:24:42.365Z,14.45
2023-05-17T04:27:47.411Z,14.44
2023-05-17T04:30:49.749Z,14.74
2023-05-17T04:33:54.698Z,14.69
2023-05-17T04:36:57.027Z,14.69
2023-05-17T04:40:00.038Z,14.55
2023-05-17T04:43:03.914Z,14.65
2023-05-17T04:46:07.084Z,14.68
2023-05-17T04:49:09.944Z,14.73
2023-05-17T04:52:12.117Z,14.78
2023-05-17T04:55:14.625Z,14.84
2023-05-17T04:58:18.512Z,14.87
2023-05-17T05:01:23.235Z,15.02
2023-05-17T05:04:25.926Z,15.10
2023-05-17T05:07:28.854Z,15.23
2023-05-17T05:10:32.659Z,15.38
2023-05-17T05:13:38.227Z,15.40
2023-05-17T05:16:40.964Z,15.56
2023-05-17T05:19:43.502Z,15.67
2023-05-17T05:22:45.770Z,16.01
2023-05-17T05:25:49.121Z,15.87
2023-05-17T05:28:51.421Z,15.87
2023-05-17T05:31:54.490Z,15.91
2023-05-17T05:34:59.832Z,15.91
2023-05-17T05:38:03.335Z,15.91
2023-05-17T05:41:06.045Z,16.01
2023-05-17T05:44:08.688Z,16.08
2023-05-17T05:47:11.232Z,16.14
2023-05-17T05:50:17.202Z,16.06
2023-05-17T05:53:23.906Z,16.19
2023-05-17T05:56:28.030Z,16.12
2023-05-17T05:59:30.685Z,15.92
2023-05-17T06:02:35.205Z,15.82
2023-05-17T06:05:39.489Z,15.79
2023-05-17T06:08:42.288Z,15.78
2023-05-17T06:11:45.952Z,15.73
2023-05-17T06:14:48.076Z,15.80
2023-05-17T06:17:50.785Z,15.83
2023-05-17T06:20:53.538Z,15.81
2023-05-17T06:23:56.144Z,15.85
2023-05-17T06:26:58.890Z,15.81
2023-05-17T06:30:02.495Z,15.82
2023-05-17T06:33:05.527Z,15.90
2023-05-17T06:36:08.381Z,15.94
2023-05-17T06:39:11.455Z,16.07
2023-05-17T06:42:14.067Z,16.15
2023-05-17T06:45:16.670Z,16.19
2023-05-17T06:48:19.973Z,16.11
2023-05-17T06:51:22.183Z,16.07
2023-05-17T06:54:24.915Z,16.13
2023-05-17T06:57:27.712Z,16.10
2023-05-17T07:00:30.509Z,16.25
2023-05-17T07:03:34.251Z,16.35
2023-05-17T07:06:37.327Z,16.57
2023-05-17T07:09:40.034Z,16.72
2023-05-17T07:12:43.443Z,16.82
2023-05-17T07:15:45.960Z,16.61
2023-05-17T07:18:48.686Z,16.51
2023-05-17T07:21:51.015Z,16.44
2023-05-17T07:24:53.574Z,16.46
2023-05-17T07:27:55.820Z,16.44
2023-05-17T07:30:58.687Z,16.46
2023-05-17T07:34:00.879Z,16.48
2023-05-17T07:37:03.728Z,16.63
2023-05-17T07:40:06.182Z,16.67
2023-05-17T07:43:08.605Z,16.87
2023-05-17T07:46:10.632Z,17.00
2023-05-17T07:49:13.800Z,16.95
2023-05-17T07:52:16.453Z,16.80
2023-05-17T07:55:19.851Z,16.66
2023-05-17T07:58:22.982Z,16.68
2023-05-17T08:01:25.820Z,16.72
2023-05-17T08:04:28.788Z,16.62
2023-05-17T08:07:32.321Z,16.61
2023-05-17T08:10:37.941Z,16.45
2023-05-17T08:13:42.528Z,16.55
2023-05-17T08:16:45.910Z,16.66
2023-05-17T08:19:48.794Z,16.65
2023-05-17T08:22:51.228Z,16.59
2023-05-17T08:25:53.780Z,16.49
2023-05-17T08:28:57.834Z,16.52
2023-05-17T08:32:00.006Z,16.60
2023-05-17T08:35:02.528Z,16.66
2023-05-17T08:38:04.733Z,16.73
2023-05-17T08:41:08.849Z,16.77
2023-05-17T08:44:11.416Z,16.91
2023-05-17T08:47:26.721Z,17.07
2023-05-17T08:50:31.278Z,17.26
2023-05-17T08:53:35.638Z,17.34
2023-05-17T08:56:39.585Z,17.70
2023-05-17T08:59:42.724Z,17.57
2023-05-17T09:02:44.945Z,17.58
2023-05-17T09:05:50.304Z,17.55
2023-05-17T09:08:54.735Z,17.64
2023-05-17T09:11:57.632Z,17.78
2023-05-17T09:15:12.254Z,17.78
2023-05-17T09:18:18.555Z,17.93
2023-05-17T09:21:22.944Z,18.39
2023-05-17T09:24:32.451Z,18.78
2023-05-17T09:27:34.720Z,19.13
2023-05-17T09:30:39.809Z,19.28
2023-05-17T09:33:46.225Z,19.40
2023-05-17T09:36:48.784Z,19.69
2023-05-17T09:39:50.937Z,19.34
2023-05-17T09:42:54.296Z,19.25
2023-05-17T09:45:59.900Z,18.68
2023-05-17T09:49:03.506Z,18.35
2023-05-17T09:52:07.993Z,18.52
2023-05-17T09:55:11.787Z,18.78
2023-05-17T09:58:13.932Z,19.09
2023-05-17T10:01:17.078Z,19.08
2023-05-17T10:04:23.271Z,19.29
2023-05-17T10:07:26.633Z,19.48
2023-05-17T10:10:30.035Z,19.52
2023-05-17T10:13:36.119Z,20.00
2023-05-17T10:16:39.097Z,20.43
2023-05-17T10:19:41.966Z,20.42
2023-05-17T10:22:44.824Z,20.68
2023-05-17T10:25:47.278Z,20.44
2023-05-17T10:28:52.824Z,20.29
2023-05-17T10:31:55.678Z,20.39
2023-05-17T10:35:09.648Z,20.28
2023-05-17T10:38:13.678Z,20.13
2023-05-17T10:41:18.910Z,20.19
2023-05-17T10:44:22.148Z,19.92
2023-05-17T10:47:31.898Z,20.28
2023-05-17T10:50:41.104Z,20.51
2023-05-17T10:54:09.045Z,20.65
2023-05-17T10:57:21.581Z,20.55
2023-05-17T11:00:27.770Z,21.32
2023-05-17T11:03:34.560Z,21.62
2023-05-17T11:06:40.410Z,21.72
2023-05-17T11:09:43.697Z,21.97
2023-05-17T11:12:49.422Z,21.92
2023-05-17T11:16:11.851Z,21.55
2023-05-17T11:19:14.331Z,21.27
2023-05-17T11:22:17.234Z,21.10
2023-05-17T11:25:19.669Z,20.83
2023-05-17T11:28:22.422Z,20.52
2023-05-17T11:31:35.674Z,20.41
2023-05-17T11:34:38.540Z,20.70
2023-05-17T11:37:43.495Z,20.51
2023-05-17T11:40:47.496Z,20.10
2023-05-17T11:43:49.878Z,19.94
2023-05-17T11:46:52.233Z,20.05
2023-05-17T11:49:56.646Z,20.15
2023-05-17T11:53:00.340Z,20.33
2023-05-17T11:56:05.915Z,20.30
2023-05-17T11:59:08.133Z,20.31
2023-05-17T12:02:10.578Z,20.36
2023-05-17T12:05:19.689Z,20.64
2023-05-17T12:08:21.829Z,20.99
2023-05-17T12:11:24.185Z,21.28
2023-05-17T12:14:26.283Z,21.69
2023-05-17T12:17:36.789Z,21.95
2023-05-17T12:20:39.413Z,21.99
2023-05-17T12:23:43.819Z,22.00
2023-05-17T12:26:48.218Z,21.86
2023-05-17T12:29:50.672Z,21.86
2023-05-17T12:32:53.011Z,21.70
2023-05-17T12:35:56.061Z,21.56
2023-05-17T12:38:58.228Z,21.53
2023-05-17T12:42:01.087Z,21.32
2023-05-17T12:45:03.261Z,21.01
2023-05-17T12:48:06.094Z,20.92
2023-05-17T12:51:10.055Z,21.18
2023-05-17T12:54:18.804Z,20.99
2023-05-17T12:57:21.035Z,21.12
2023-05-17T13:00:23.549Z,21.19
2023-05-17T13:03:26.548Z,20.98
2023-05-17T13:06:30.109Z,20.77
2023-05-17T13:09:33.116Z,20.75
2023-05-17T13:12:39.279Z,20.94
2023-05-17T13:15:41.586Z,20.98
2023-05-17T13:18:47.819Z,20.46
2023-05-17T13:21:50.245Z,20.34
2023-05-17T13:24:53.558Z,20.52
2023-05-17T13:27:55.996Z,20.47
2023-05-17T13:30:58.318Z,20.34
2023-05-17T13:34:00.812Z,20.17
2023-05-17T13:37:03.396Z,19.80
2023-05-17T13:40:05.930Z,19.92
2023-05-17T13:43:09.922Z,19.84
2023-05-17T13:46:12.513Z,19.70
2023-05-17T13:49:14.953Z,19.62
2023-05-17T13:52:18.633Z,19.72
2023-05-17T13:55:21.306Z,19.70
2023-05-17T13:58:23.357Z,19.62
2023-05-17T14:01:25.800Z,19.16
2023-05-17T14:04:28.595Z,19.13
2023-05-17T14:07:30.695Z,19.03
2023-05-17T14:10:34.180Z,19.24
2023-05-17T14:13:36.465Z,19.43
2023-05-17T14:16:39.030Z,19.03
2023-05-17T14:19:41.193Z,19.04
2023-05-17T14:22:43.631Z,18.98
2023-05-17T14:25:48.989Z,18.85
2023-05-17T14:28:51.893Z,18.77
2023-05-17T14:31:53.863Z,18.73
2023-05-17T14:34:56.249Z,18.67
2023-05-17T14:37:58.334Z,18.60
2023-05-17T14:41:01.197Z,18.54
2023-05-17T14:44:03.294Z,18.52
2023-05-17T14:47:08.578Z,18.61
2023-05-17T14:50:10.977Z,18.51
2023-05-17T14:53:13.319Z,18.27
2023-05-17T14:56:15.416Z,18.53
2023-05-17T14:59:17.867Z,18.72
2023-05-17T15:02:19.867Z,18.42
2023-05-17T15:05:22.272Z,18.55
2023-05-17T15:08:24.445Z,18.67
2023-05-17T15:11:26.723Z,18.70
2023-05-17T15:14:29.153Z,18.65
2023-05-17T15:17:32.030Z,18.50
2023-05-17T15:20:36.154Z,18.64
2023-05-17T15:23:39.236Z,18.51
2023-05-17T15:26:41.827Z,18.55
2023-05-17T15:29:44.159Z,18.30
2023-05-17T15:32:46.813Z,18.05
2023-05-17T15:35:49.323Z,17.82
2023-05-17T15:38:51.310Z,17.54
2023-05-17T15:41:53.583Z,17.48
2023-05-17T15:44:55.621Z,17.35
2023-05-17T15:47:58.169Z,17.27
2023-05-17T15:51:00.892Z,16.93
2023-05-17T15:54:03.204Z,17.05
2023-05-17T15:57:05.418Z,16.85
2023-05-17T16:00:08.093Z,16.59
2023-05-17T16:03:10.698Z,16.57
2023-05-17T16:06:14.238Z,16.45
2023-05-17T16:09:16.785Z,16.21
2023-05-17T16:12:18.867Z,16.31
2023-05-17T16:15:21.264Z,16.30
2023-05-17T16:18:23.401Z,16.13
2023-05-17T16:21:26.200Z,15.84
2023-05-17T16:24:28.207Z,15.91
2023-05-17T16:27:31.352Z,15.90
2023-05-17T16:30:33.451Z,15.72
2023-05-17T16:33:36.118Z,15.60
2023-05-17T16:36:38.475Z,15.47
2023-05-17T16:39:41.348Z,15.30
2023-05-17T16:42:44.461Z,14.99
2023-05-17T16:45:46.820Z,14.96
2023-05-17T16:48:48.778Z,15.01
2023-05-17T16:51:52.242Z,14.85
2023-05-17T16:54:55.985Z,14.92
2023-05-17T16:57:58.279Z,14.78
2023-05-17T17:01:00.253Z,14.54
2023-05-17T17:04:03.245Z,14.74
2023-05-17T17:07:05.466Z,14.62
2023-05-17T17:10:07.959Z,14.53
2023-05-17T17:13:10.381Z,14.61
2023-05-17T17:16:12.722Z,14.62
2023-05-17T17:19:14.863Z,14.77
2023-05-17T17:22:17.258Z,14.66
2023-05-17T17:25:19.303Z,14.60
2023-05-17T17:28:21.986Z,14.57
2023-05-17T17:31:24.127Z,14.47
2023-05-17T17:34:26.411Z,14.48
2023-05-17T17:37:28.459Z,14.36
2023-05-17T17:40:31.121Z,14.46
2023-05-17T17:43:33.417Z,14.28
2023-05-17T17:46:35.788Z,14.32
2023-05-17T17:49:37.840Z,14.06
2023-05-17T17:52:40.290Z,13.95
2023-05-17T17:55:42.373Z,13.83
2023-05-17T17:58:45.716Z,13.82
2023-05-17T18:01:47.845Z,13.72
2023-05-17T18:04:50.207Z,13.69
2023-05-17T18:07:52.698Z,13.74
2023-05-17T18:10:55.007Z,13.67
2023-05-17T18:13:57.055Z,13.65
2023-05-17T18:16:59.450Z,13.56
2023-05-17T18:20:01.622Z,13.53
2023-05-17T18:23:03.880Z,13.44
2023-05-17T18:26:06.258Z,13.50
2023-05-17T18:29:08.513Z,13.62
2023-05-17T18:32:10.622Z,13.57
2023-05-17T18:35:12.944Z,13.57
2023-05-17T18:38:14.952Z,13.57
2023-05-17T18:41:17.228Z,13.57
2023-05-17T18:44:20.117Z,13.77
2023-05-17T18:47:23.537Z,13.65
2023-05-17T18:50:25.742Z,13.52
2023-05-17T18:53:29.233Z,13.50
2023-05-17T18:56:32.650Z,13.57
2023-05-17T18:59:34.918Z,13.56
2023-05-17T19:02:36.966Z,13.63
2023-05-17T19:05:39.398Z,13.55
2023-05-17T19:08:41.738Z,13.59
2023-05-17T19:11:44.052Z,13.57
2023-05-17T19:14:46.123Z,13.49
2023-05-17T19:17:48.512Z,13.27
2023-05-17T19:20:50.840Z,13.37
2023-05-17T19:23:53.109Z,13.40
2023-05-17T19:26:55.151Z,13.50
2023-05-17T19:29:57.496Z,13.51
2023-05-17T19:32:59.588Z,13.42
2023-05-17T19:36:02.218Z,13.46
2023-05-17T19:39:04.283Z,13.41
2023-05-17T19:42:06.933Z,13.47
2023-05-17T19:45:10.806Z,13.48
2023-05-17T19:48:13.203Z,13.41
2023-05-17T19:51:15.527Z,13.44
2023-05-17T19:54:17.825Z,13.31
2023-05-17T19:57:19.803Z,13.25
2023-05-17T20:00:22.195Z,13.28
2023-05-17T20:03:24.631Z,13.21
2023-05-17T20:06:28.992Z,13.12
2023-05-17T20:09:32.081Z,13.01
2023-05-17T20:12:34.128Z,13.09
2023-05-17T20:15:36.597Z,13.10
2023-05-17T20:18:42.279Z,13.02
2023-05-17T20:21:44.873Z,12.93
2023-05-17T20:24:47.272Z,12.92
2023-05-17T20:27:49.546Z,13.11
2023-05-17T20:30:51.698Z,13.04
2023-05-17T20:33:54.853Z,13.21
2023-05-17T20:36:57.444Z,13.21
2023-05-17T20:40:00.309Z,13.20
2023-05-17T20:43:03.514Z,12.91
2023-05-17T20:46:06.708Z,12.92
2023-05-17T20:49:09.757Z,12.91
2023-05-17T20:52:13.087Z,12.88
2023-05-17T20:55:15.366Z,12.91
2023-05-17T20:58:17.624Z,12.88
2023-05-17T21:01:19.717Z,13.06
2023-05-17T21:04:22.013Z,13.06
2023-05-17T21:07:26.518Z,13.06
2023-05-17T21:10:29.488Z,12.99
2023-05-17T21:13:31.652Z,12.99
2023-05-17T21:16:35.436Z,13.16
2023-05-17T21:19:37.563Z,13.09
2023-05-17T21:22:39.790Z,12.91
2023-05-17T21:25:41.811Z,12.98
2023-05-17T21:28:44.132Z,13.07
2023-05-17T21:31:46.168Z,13.21
2023-05-17T21:34:48.489Z,12.97
2023-05-17T21:37:50.566Z,13.05
2023-05-17T21:40:53.232Z,13.08
2023-05-17T21:43:55.274Z,13.10
2023-05-17T21:46:59.022Z,13.11
2023-05-17T21:50:01.484Z,13.23
2023-05-17T21:53:03.784Z,13.26
2023-05-17T21:56:06.001Z,13.09
2023-05-17T21:59:08.320Z,13.03
2023-05-17T22:02:10.505Z,13.16
2023-05-17T22:05:13.286Z,13.16
2023-05-17T22:08:15.338Z,12.97
2023-05-17T22:11:18.237Z,12.90
2023-05-17T22:14:20.593Z,13.05
2023-05-17T22:17:34.997Z,13.21
2023-05-17T22:20:41.157Z,13.19
2023-05-17T22:23:43.513Z,13.08
2023-05-17T22:26:45.488Z,13.09
2023-05-17T22:29:48.091Z,13.24
2023-05-17T22:32:51.932Z,13.18
2023-05-17T22:35:54.363Z,13.35
2023-05-17T22:38:56.926Z,13.23
2023-05-17T22:41:59.184Z,13.06
2023-05-17T22:45:01.282Z,12.97
2023-05-17T22:48:05.762Z,13.10
2023-05-17T22:51:07.923Z,13.16
2023-05-17T22:54:10.521Z,12.96
2023-05-17T22:57:12.506Z,12.86
2023-05-17T23:00:15.061Z,12.97
2023-05-17T23:03:17.618Z,13.06
2023-05-17T23:06:22.094Z,13.14
2023-05-17T23:09:24.175Z,13.20
2023-05-17T23:12:27.519Z,12.90
2023-05-17T23:15:29.897Z,13.02
2023-05-17T23:18:32.432Z,12.93
2023-05-17T23:21:35.704Z,13.03
2023-05-17T23:24:38.744Z,13.19
2023-05-17T23:27:41.317Z,13.07
2023-05-17T23:30:44.526Z,13.15
2023-05-17T23:33:46.595Z,13.09
2023-05-17T23:36:48.893Z,13.04
2023-05-17T23:39:50.894Z,13.02
2023-05-17T23:42:53.214Z,12.90
2023-05-17T23:45:55.335Z,12.69
2023-05-17T23:48:57.958Z,12.67
2023-05-17T23:52:00.104Z,12.46
2023-05-17T23:55:03.079Z,12.63
2023-05-17T23:58:05.228Z,12.57
